Time;durP1;ratioP1;P1;durP2;ratioP2;P2;SDS_P1;SDS_P2;PMS_P1;PMS_P2;Temp;Humidity;BMP_temperature;BMP_pressure;BME280_temperature;BME280_humidity;BME280_pressure;Samples;Min_cycle;Max_cycle;Signal;HPM_P1;HPM_P2
2023/09/09 00:01:48;;;;;;;;;;;;;;;23.50;nan;101956.94;5018289;28;20008;-82
2023/09/09 00:04:13;;;;;;;;;;;;;;;23.48;nan;101952.91;5016302;28;20398;-82
2023/09/09 00:06:39;;;;;;;;;;;;;;;23.44;nan;101954.63;5018285;28;20372;-82
2023/09/09 00:09:05;;;;;;;;;;;;;;;23.39;nan;101952.03;5017964;28;20397;-82
2023/09/09 00:11:30;;;;;;;;;;;;;;;23.35;nan;101948.28;5017249;28;20375;-82
2023/09/09 00:13:56;;;;;;;;;;;;;;;23.30;nan;101946.44;5019383;28;19991;-82
2023/09/09 00:16:21;;;;;;;;;;;;;;;23.27;nan;101951.72;5017493;28;19947;-82
2023/09/09 00:18:47;;;;;;;;;;;;;;;23.23;nan;101956.19;5022026;28;21014;-81
2023/09/09 00:21:14;;;;;;;;;;;;;;;23.19;nan;101951.31;5014827;28;19925;-82
2023/09/09 00:23:39;;;;;;;;;;;;;;;23.16;nan;101953.84;5019244;28;19959;-82
2023/09/09 00:26:04;;;;;;;;;;;;;;;23.10;nan;101953.13;5016524;28;19997;-82
2023/09/09 00:28:30;;;;;;;;;;;;;;;23.05;nan;101950.50;5017525;28;19922;-82
2023/09/09 00:30:55;;;;;;;;;;;;;;;23.02;nan;101945.66;5016649;28;20142;-83
2023/09/09 00:33:20;;;;;;;;;;;;;;;22.98;nan;101947.38;5017431;28;19917;-83
2023/09/09 00:35:46;;;;;;;;;;;;;;;22.94;nan;101942.78;5019223;28;20493;-82
2023/09/09 00:38:12;;;;;;;;;;;;;;;22.92;nan;101941.16;5015673;28;20455;-83
2023/09/09 00:40:37;;;;;;;;;;;;;;;22.88;nan;101940.16;5017324;28;19972;-82
2023/09/09 00:43:03;;;;;;;;;;;;;;;22.86;nan;101941.59;5016195;28;19960;-83
2023/09/09 00:45:28;;;;;;;;;;;;;;;22.78;nan;101940.31;5016954;28;19918;-83
2023/09/09 00:47:55;;;;;;;;;;;;;;;22.71;nan;101950.03;5017276;28;19917;-82
2023/09/09 00:50:20;;;;;;;;;;;;;;;22.68;nan;101942.44;5019225;28;20311;-82
2023/09/09 00:52:49;;;;;;;;;;;;;;;22.64;nan;101947.69;5014739;28;20021;-83
2023/09/09 00:55:14;;;;;;;;;;;;;;;22.63;nan;101946.06;5015781;28;19925;-83
2023/09/09 00:57:39;;;;;;;;;;;;;;;22.63;nan;101937.88;5017107;28;19984;-83
2023/09/09 01:00:09;;;;;;;;;;;;;;;22.59;nan;101937.66;5022282;28;19963;-84
2023/09/09 01:02:41;;;;;;;;;;;;;;;22.56;nan;101942.91;5014195;28;19925;-83
2023/09/09 01:05:07;;;;;;;;;;;;;;;22.52;nan;101948.16;5015310;28;20470;-83
2023/09/09 01:07:43;;;;;;;;;;;;;;;22.50;nan;101946.84;5014394;28;19917;-83
2023/09/09 01:10:09;;;;;;;;;;;;;;;22.43;nan;101941.75;5016534;28;19932;-83
2023/09/09 01:12:34;;;;;;;;;;;;;;;22.39;nan;101937.19;5016690;28;19917;-83
2023/09/09 01:14:59;;;;;;;;;;;;;;;22.38;nan;101944.56;5016369;28;20007;-83
2023/09/09 01:17:25;;;;;;;;;;;;;;;22.36;nan;101933.13;5013733;28;20019;-83
2023/09/09 01:19:51;;;;;;;;;;;;;;;22.35;nan;101939.72;5017149;28;20380;-83
2023/09/09 01:22:18;;;;;;;;;;;;;;;22.33;nan;101932.94;5014517;28;20008;-83
2023/09/09 01:24:45;;;;;;;;;;;;;;;22.33;nan;101936.47;5017542;28;19933;-83
2023/09/09 01:27:10;;;;;;;;;;;;;;;22.32;nan;101932.13;5014393;28;19921;-83
2023/09/09 01:29:35;;;;;;;;;;;;;;;22.33;nan;101931.00;5030972;28;19921;-83
2023/09/09 01:32:00;;;;;;;;;;;;;;;;;;5016614;28;19955;-83
2023/09/09 01:34:26;;;;;;;;;;;;;;;22.31;nan;101925.84;5016356;28;19956;-83
2023/09/09 01:36:51;;;;;;;;;;;;;;;22.28;nan;101925.66;5016661;28;19924;-83
2023/09/09 01:39:16;;;;;;;;;;;;;;;22.26;nan;101930.56;5016928;28;20092;-83
2023/09/09 01:41:41;;;;;;;;;;;;;;;22.20;nan;101926.31;5018470;28;20361;-83
2023/09/09 01:44:07;;;;;;;;;;;;;;;22.16;nan;101928.81;5016609;28;20476;-83
2023/09/09 01:46:32;;;;;;;;;;;;;;;22.13;nan;101925.88;5017828;28;19924;-83
2023/09/09 01:48:58;;;;;;;;;;;;;;;22.08;nan;101931.41;5017447;28;19999;-83
2023/09/09 01:51:23;;;;;;;;;;;;;;;22.06;nan;101930.91;5014615;28;19928;-83
2023/09/09 01:53:48;;;;;;;;;;;;;;;22.01;nan;101927.13;5017541;28;19944;-83
2023/09/09 01:56:14;;;;;;;;;;;;;;;22.01;nan;101929.03;5018045;28;19921;-83
2023/09/09 01:58:39;;;;;;;;;;;;;;;21.97;nan;101926.09;5015158;28;19925;-83
2023/09/09 02:01:04;;;;;;;;;;;;;;;21.97;nan;101925.28;5016198;28;19957;-83
2023/09/09 02:03:30;;;;;;;;;;;;;;;21.94;nan;101921.22;5015229;28;19999;-83
2023/09/09 02:05:55;;;;;;;;;;;;;;;21.94;nan;101921.22;5018027;28;19921;-83
2023/09/09 02:08:21;;;;;;;;;;;;;;;21.93;nan;101924.25;5015334;28;19929;-83
2023/09/09 02:10:48;;;;;;;;;;;;;;;21.94;nan;101918.50;5019382;28;19917;-83
2023/09/09 02:13:14;;;;;;;;;;;;;;;21.94;nan;101915.78;5016163;28;19925;-83
2023/09/09 02:15:39;;;;;;;;;;;;;;;21.94;nan;101914.97;5017351;28;19928;-83
2023/09/09 02:18:04;;;;;;;;;;;;;;;21.93;nan;101911.44;5014597;28;19940;-83
2023/09/09 02:20:29;;;;;;;;;;;;;;;21.93;nan;101918.78;5014927;28;20349;-83
2023/09/09 02:22:55;;;;;;;;;;;;;;;21.90;nan;101908.44;5016896;28;19917;-83
2023/09/09 02:25:20;;;;;;;;;;;;;;;21.86;nan;101908.25;5015606;28;21534;-83
2023/09/09 02:27:45;;;;;;;;;;;;;;;21.84;nan;101915.09;5017252;28;19963;-83
2023/09/09 02:30:11;;;;;;;;;;;;;;;21.83;nan;101908.84;5020368;28;19921;-83
2023/09/09 02:32:37;;;;;;;;;;;;;;;21.83;nan;101908.03;5017924;28;20433;-82
2023/09/09 02:35:03;;;;;;;;;;;;;;;21.80;nan;101906.69;5018436;28;20500;-83
2023/09/09 02:37:28;;;;;;;;;;;;;;;21.79;nan;101909.72;5016836;28;19925;-82
2023/09/09 02:39:53;;;;;;;;;;;;;;;21.80;nan;101908.63;5023311;28;20462;-83
2023/09/09 02:42:22;;;;;;;;;;;;;;;21.79;nan;101907.81;5030469;28;20124;-82
2023/09/09 02:44:51;;;;;;;;;;;;;;;21.76;nan;101913.88;5019637;28;19924;-82
2023/09/09 02:47:17;;;;;;;;;;;;;;;21.71;nan;101917.44;5016887;28;19921;-83
2023/09/09 02:49:46;;;;;;;;;;;;;;;21.71;nan;101922.09;5021121;28;21389;-82
2023/09/09 02:52:11;;;;;;;;;;;;;;;21.71;nan;101928.34;5014345;28;19917;-82
2023/09/09 02:54:38;;;;;;;;;;;;;;;21.73;nan;101916.38;5016948;28;20032;-82
2023/09/09 02:57:03;;;;;;;;;;;;;;;21.73;nan;101925.38;5015495;28;19961;-83
2023/09/09 02:59:30;;;;;;;;;;;;;;;21.72;nan;101923.72;5013818;28;19967;-82
2023/09/09 03:01:55;;;;;;;;;;;;;;;21.70;nan;101928.66;5015215;28;19917;-82
2023/09/09 03:04:20;;;;;;;;;;;;;;;21.67;nan;101923.78;5014430;28;19924;-83
2023/09/09 03:06:46;;;;;;;;;;;;;;;21.67;nan;101921.06;5009584;28;20393;-83
2023/09/09 03:09:13;;;;;;;;;;;;;;;21.66;nan;101912.06;5007537;28;20920;-82
2023/09/09 03:11:38;;;;;;;;;;;;;;;21.66;nan;101919.44;5012592;28;19948;-83
2023/09/09 03:14:03;;;;;;;;;;;;;;;21.64;nan;101911.56;5016470;28;20456;-83
2023/09/09 03:16:28;;;;;;;;;;;;;;;21.64;nan;101916.22;5015513;28;19925;-82
2023/09/09 03:18:54;;;;;;;;;;;;;;;21.61;nan;101909.44;5018208;28;19917;-83
2023/09/09 03:21:19;;;;;;;;;;;;;;;21.61;nan;101912.16;5011710;28;19917;-82
2023/09/09 03:23:45;;;;;;;;;;;;;;;21.58;nan;101907.28;5009207;28;20424;-83
2023/09/09 03:26:10;;;;;;;;;;;;;;;21.56;nan;101914.97;5011180;28;20009;-82
2023/09/09 03:28:35;;;;;;;;;;;;;;;21.53;nan;101906.53;5009889;28;19975;-83
2023/09/09 03:31:01;;;;;;;;;;;;;;;21.47;nan;101911.25;5015426;28;20397;-82
2023/09/09 03:33:27;;;;;;;;;;;;;;;21.41;nan;101910.53;5015628;28;20399;-82
2023/09/09 03:35:52;;;;;;;;;;;;;;;21.38;nan;101904.84;5017136;28;20428;-82
2023/09/09 03:38:18;;;;;;;;;;;;;;;21.37;nan;101914.13;5014897;28;19918;-83
2023/09/09 03:40:43;;;;;;;;;;;;;;;21.35;nan;101919.84;5016626;28;19957;-83
2023/09/09 03:43:08;;;;;;;;;;;;;;;21.35;nan;101917.13;5014956;28;20321;-82
2023/09/09 03:45:34;;;;;;;;;;;;;;;21.33;nan;101922.06;5017928;28;20294;-83
2023/09/09 03:47:59;;;;;;;;;;;;;;;21.31;nan;101916.09;5018865;28;19917;-83
2023/09/09 03:50:24;;;;;;;;;;;;;;;21.30;nan;101905.47;5021520;28;20020;-82
2023/09/09 03:52:50;;;;;;;;;;;;;;;21.27;nan;101906.88;5018804;28;19923;-83
2023/09/09 03:55:17;;;;;;;;;;;;;;;21.24;nan;101918.38;5018572;28;19921;-83
2023/09/09 03:57:42;;;;;;;;;;;;;;;21.20;nan;101906.41;5014308;28;19921;-83
2023/09/09 04:00:09;;;;;;;;;;;;;;;21.21;nan;101918.13;5016337;28;20364;-83
2023/09/09 04:02:34;;;;;;;;;;;;;;;21.20;nan;101906.41;5013945;28;19928;-83
2023/09/09 04:04:59;;;;;;;;;;;;;;;21.19;nan;101906.69;5016144;28;20320;-83
2023/09/09 04:07:25;;;;;;;;;;;;;;;21.18;nan;101914.03;5014921;28;19921;-82
2023/09/09 04:09:50;;;;;;;;;;;;;;;21.14;nan;101910.28;5014097;28;20399;-83
2023/09/09 04:12:15;;;;;;;;;;;;;;;21.11;nan;101908.94;5014056;28;20358;-82
2023/09/09 04:14:41;;;;;;;;;;;;;;;21.10;nan;101910.06;5018175;28;19979;-82
2023/09/09 04:17:06;;;;;;;;;;;;;;;21.09;nan;101904.91;5015747;28;19917;-82
2023/09/09 04:19:32;;;;;;;;;;;;;;;21.07;nan;101909.81;5018626;28;20172;-83
2023/09/09 04:21:57;;;;;;;;;;;;;;;21.05;nan;101910.13;5011583;28;19925;-82
2023/09/09 04:24:22;;;;;;;;;;;;;;;21.03;nan;101911.50;5020703;28;19923;-82
2023/09/09 04:26:48;;;;;;;;;;;;;;;21.00;nan;101917.50;5013946;28;19948;-83
2023/09/09 04:29:14;;;;;;;;;;;;;;;20.96;nan;101914.56;5016818;28;19930;-82
2023/09/09 04:31:39;;;;;;;;;;;;;;;20.92;nan;101915.44;5014126;28;19975;-82
2023/09/09 04:34:04;;;;;;;;;;;;;;;20.86;nan;101924.78;5018657;28;19917;-83
2023/09/09 04:36:29;;;;;;;;;;;;;;;20.84;nan;101929.72;5014596;28;19952;-82
2023/09/09 04:38:55;;;;;;;;;;;;;;;20.80;nan;101924.81;5016849;28;19971;-83
2023/09/09 04:41:20;;;;;;;;;;;;;;;20.79;nan;101922.38;5016961;28;19918;-82
2023/09/09 04:43:45;;;;;;;;;;;;;;;20.78;nan;101921.56;5015916;28;19921;-83
2023/09/09 04:46:11;;;;;;;;;;;;;;;20.78;nan;101918.03;5016377;28;19922;-82
2023/09/09 04:48:36;;;;;;;;;;;;;;;20.76;nan;101923.78;5017446;28;19929;-83
2023/09/09 04:51:02;;;;;;;;;;;;;;;20.75;nan;101924.88;5013721;28;19983;-82
2023/09/09 04:53:27;;;;;;;;;;;;;;;20.74;nan;101923.25;5016255;28;20422;-82
2023/09/09 04:55:52;;;;;;;;;;;;;;;20.74;nan;101925.16;5014187;28;19925;-82
2023/09/09 04:58:18;;;;;;;;;;;;;;;20.73;nan;101928.97;5016215;28;20330;-82
2023/09/09 05:00:43;;;;;;;;;;;;;;;20.74;nan;101925.16;5031803;28;20344;-82
2023/09/09 05:03:08;;;;;;;;;;;;;;;20.78;nan;101920.75;5011725;28;20592;-82
2023/09/09 05:05:33;;;;;;;;;;;;;;;20.82;nan;101919.06;5012632;28;19928;-83
2023/09/09 05:07:59;;;;;;;;;;;;;;;20.87;nan;101915.50;5012092;28;20004;-82
2023/09/09 05:10:27;;;;;;;;;;;;;;;20.92;nan;101918.16;5013631;28;20288;-82
2023/09/09 05:12:52;;;;;;;;;;;;;;;20.97;nan;101918.91;5018075;28;19918;-82
2023/09/09 05:15:17;;;;;;;;;;;;;;;21.00;nan;101920.25;5015858;28;19921;-82
2023/09/09 05:17:43;;;;;;;;;;;;;;;21.04;nan;101919.41;5013552;28;20714;-83
2023/09/09 05:20:08;;;;;;;;;;;;;;;21.10;nan;101929.13;5013702;28;19968;-83
2023/09/09 05:22:34;;;;;;;;;;;;;;;21.18;nan;101933.09;5011316;28;19961;-82
2023/09/09 05:24:59;;;;;;;;;;;;;;;21.25;nan;101939.06;5013890;28;20679;-83
2023/09/09 05:27:24;;;;;;;;;;;;;;;21.32;nan;101933.25;5012026;28;19917;-83
2023/09/09 05:29:50;;;;;;;;;;;;;;;21.36;nan;101932.41;5017336;28;20141;-83
2023/09/09 05:32:15;;;;;;;;;;;;;;;21.46;nan;101930.63;5015742;28;19921;-83
2023/09/09 05:34:41;;;;;;;;;;;;;;;21.57;nan;101937.59;5015012;28;20276;-82
2023/09/09 05:37:06;;;;;;;;;;;;;;;21.65;nan;101931.47;5014598;28;19967;-83
2023/09/09 05:39:31;;;;;;;;;;;;;;;21.71;nan;101933.00;5017545;28;19917;-83
2023/09/09 05:41:56;;;;;;;;;;;;;;;21.76;nan;101929.41;5017186;28;19917;-83
2023/09/09 05:44:22;;;;;;;;;;;;;;;21.86;nan;101929.25;5014373;28;19971;-83
2023/09/09 05:46:47;;;;;;;;;;;;;;;21.99;nan;101933.97;5017592;28;20386;-83
2023/09/09 05:49:15;;;;;;;;;;;;;;;22.13;nan;101931.34;5014238;28;20128;-83
2023/09/09 05:51:40;;;;;;;;;;;;;;;22.25;nan;101929.75;5015915;28;19925;-82
2023/09/09 05:54:05;;;;;;;;;;;;;;;22.36;nan;101924.94;5018535;28;20417;-83
2023/09/09 05:56:31;;;;;;;;;;;;;;;22.47;nan;101928.31;5017677;28;19917;-82
2023/09/09 05:58:56;;;;;;;;;;;;;;;22.57;nan;101928.94;5019129;28;19971;-82
2023/09/09 06:01:21;;;;;;;;;;;;;;;22.68;nan;101923.31;5018063;28;20485;-83
2023/09/09 06:03:47;;;;;;;;;;;;;;;22.78;nan;101926.66;5018767;28;19917;-83
2023/09/09 06:06:12;;;;;;;;;;;;;;;22.90;nan;101932.47;5016652;28;19947;-82
2023/09/09 06:08:37;;;;;;;;;;;;;;;23.05;nan;101930.56;5015971;28;20043;-83
2023/09/09 06:11:03;;;;;;;;;;;;;;;23.18;nan;101933.31;5016218;28;19917;-83
2023/09/09 06:13:28;;;;;;;;;;;;;;;23.29;nan;101931.16;5017652;28;19921;-82
2023/09/09 06:15:53;;;;;;;;;;;;;;;23.40;nan;101937.22;5018480;28;19921;-82
2023/09/09 06:18:19;;;;;;;;;;;;;;;23.54;nan;101938.03;5012182;28;19925;-83
2023/09/09 06:20:48;;;;;;;;;;;;;;;23.71;nan;101934.69;5013454;28;20441;-83
2023/09/09 06:23:13;;;;;;;;;;;;;;;23.86;nan;101937.03;5016871;28;19925;-82
2023/09/09 06:25:39;;;;;;;;;;;;;;;24.01;nan;101933.16;5015653;28;19921;-83
2023/09/09 06:28:04;;;;;;;;;;;;;;;24.18;nan;101943.41;5012510;28;19955;-83
2023/09/09 06:30:30;;;;;;;;;;;;;;;24.32;nan;101939.53;5014457;28;20160;-83
2023/09/09 06:32:55;;;;;;;;;;;;;;;24.48;nan;101941.91;5012416;28;20415;-83
2023/09/09 06:35:22;;;;;;;;;;;;;;;24.61;nan;101938.28;5013039;28;20373;-82
2023/09/09 06:37:47;;;;;;;;;;;;;;;24.72;nan;101945.09;5017793;28;19917;-82
2023/09/09 06:40:12;;;;;;;;;;;;;;;24.80;nan;101938.84;5012526;28;20178;-83
2023/09/09 06:42:38;;;;;;;;;;;;;;;24.86;nan;101932.09;5020574;28;19928;-82
2023/09/09 06:45:04;;;;;;;;;;;;;;;24.93;nan;101939.84;5016106;28;19928;-83
2023/09/09 06:47:29;;;;;;;;;;;;;;;25.02;nan;101942.69;5014205;28;20433;-82
2023/09/09 06:49:54;;;;;;;;;;;;;;;25.10;nan;101936.41;5020310;28;20020;-83
2023/09/09 06:52:20;;;;;;;;;;;;;;;25.18;nan;101939.19;5016637;28;19917;-84
2023/09/09 06:54:45;;;;;;;;;;;;;;;25.24;nan;101942.59;5013669;28;19957;-84
2023/09/09 06:57:11;;;;;;;;;;;;;;;25.32;nan;101944.56;5015042;28;19960;-86
2023/09/09 06:59:36;;;;;;;;;;;;;;;25.42;nan;101948.94;5017991;28;19916;-87
2023/09/09 07:02:02;;;;;;;;;;;;;;;25.59;nan;101948.97;5018644;28;19925;-86
2023/09/09 07:04:27;;;;;;;;;;;;;;;25.75;nan;101941.91;5021645;28;20192;-88
2023/09/09 07:06:52;;;;;;;;;;;;;;;25.91;nan;101950.47;5023640;28;19922;-89
2023/09/09 07:09:20;;;;;;;;;;;;;;;26.03;nan;101956.13;5022461;28;20660;-88
2023/09/09 07:11:45;;;;;;;;;;;;;;;26.18;nan;101946.56;5029232;28;19917;-89
2023/09/09 07:14:11;;;;;;;;;;;;;;;26.33;nan;101950.75;5023359;28;20051;-88
2023/09/09 07:16:36;;;;;;;;;;;;;;;26.52;nan;101948.50;5023202;28;19921;-88
2023/09/09 07:19:01;;;;;;;;;;;;;;;26.68;nan;101952.31;5027586;28;20295;-87
2023/09/09 07:21:27;;;;;;;;;;;;;;;26.82;nan;101951.31;5024670;28;19983;-89
2023/09/09 07:23:52;;;;;;;;;;;;;;;26.94;nan;101949.50;5022609;28;19917;-88
2023/09/09 07:26:18;;;;;;;;;;;;;;;27.09;nan;101946.19;5027553;28;19947;-89
2023/09/09 07:28:43;;;;;;;;;;;;;;;27.24;nan;101953.09;5024561;28;20044;-90
2023/09/09 07:31:08;;;;;;;;;;;;;;;27.37;nan;101951.25;5022247;28;19925;-90
2023/09/09 07:36:13;;;;;;;;;;;;;;;27.61;nan;101945.91;5100141;23;20515;-90
2023/09/09 07:38:38;;;;;;;;;;;;;;;27.78;nan;101944.19;5001970;28;19917;-89
2023/09/09 07:41:04;;;;;;;;;;;;;;;27.91;nan;101954.13;5003965;28;19929;-90
2023/09/09 07:43:29;;;;;;;;;;;;;;;28.03;nan;101953.41;4999341;28;20306;-89
2023/09/09 07:45:55;;;;;;;;;;;;;;;28.12;nan;101949.41;4999532;28;20046;-87
2023/09/09 07:48:23;;;;;;;;;;;;;;;28.23;nan;101955.31;5002672;28;19921;-89
2023/09/09 07:50:49;;;;;;;;;;;;;;;28.33;nan;101943.88;5000680;28;19926;-89
2023/09/09 07:53:14;;;;;;;;;;;;;;;28.45;nan;101954.16;5001622;28;19929;-90
2023/09/09 07:55:40;;;;;;;;;;;;;;;28.61;nan;101954.31;5003681;28;19917;-89
2023/09/09 07:58:05;;;;;;;;;;;;;;;28.77;nan;101953.31;5003228;28;20433;-88
2023/09/09 08:00:30;;;;;;;;;;;;;;;28.94;nan;101955.06;4999248;28;19928;-89
2023/09/09 08:02:56;;;;;;;;;;;;;;;29.13;nan;101962.78;5001179;28;19917;-89
2023/09/09 08:05:21;;;;;;;;;;;;;;;29.25;nan;101940.69;5002114;28;19929;-90
2023/09/09 08:07:47;;;;;;;;;;;;;;;29.35;nan;101944.94;4996780;28;20314;-89
2023/09/09 08:10:12;;;;;;;;;;;;;;;29.48;nan;101955.66;4999221;28;19933;-89
2023/09/09 08:12:37;;;;;;;;;;;;;;;29.58;nan;101943.31;5001365;28;19917;-90
2023/09/09 08:15:03;;;;;;;;;;;;;;;29.71;nan;101946.84;5000854;28;19917;-90
2023/09/09 08:17:29;;;;;;;;;;;;;;;29.86;nan;101948.06;5002909;28;20325;-90
2023/09/09 08:19:54;;;;;;;;;;;;;;;30.02;nan;101940.66;4997184;28;19921;-90
2023/09/09 08:22:19;;;;;;;;;;;;;;;30.15;nan;101933.13;5001604;28;19922;-88
2023/09/09 08:24:45;;;;;;;;;;;;;;;30.24;nan;101934.59;5006094;28;19917;-88
2023/09/09 08:27:10;;;;;;;;;;;;;;;30.38;nan;101942.47;4998031;28;20678;-88
2023/09/09 08:29:35;;;;;;;;;;;;;;;30.51;nan;101940.41;5002744;28;19925;-89
2023/09/09 08:32:00;;;;;;;;;;;;;;;30.60;nan;101941.06;4996281;28;19924;-89
2023/09/09 08:34:26;;;;;;;;;;;;;;;30.56;nan;101935.44;4999317;28;19968;-89
2023/09/09 08:36:51;;;;;;;;;;;;;;;30.62;nan;101944.28;5003136;28;19917;-89
2023/09/09 08:39:19;;;;;;;;;;;;;;;30.72;nan;101945.75;5002592;28;19926;-88
2023/09/09 08:42:09;;;;;;;;;;;;;;;30.84;nan;101938.13;4997253;28;20267;-90
2023/09/09 08:44:48;;;;;;;;;;;;;;;30.94;nan;101945.91;5000774;28;19918;-89
2023/09/09 08:47:14;;;;;;;;;;;;;;;31.04;nan;101943.75;5000376;28;19921;-90
2023/09/09 08:49:41;;;;;;;;;;;;;;;31.18;nan;101942.16;5001927;28;19929;-89
2023/09/09 08:52:08;;;;;;;;;;;;;;;31.34;nan;101942.13;5000997;28;19956;-88
2023/09/09 08:54:34;;;;;;;;;;;;;;;31.52;nan;101935.00;4998489;28;19925;-88
2023/09/09 08:57:00;;;;;;;;;;;;;;;31.68;nan;101943.28;4996267;28;19926;-90
2023/09/09 08:59:27;;;;;;;;;;;;;;;31.85;nan;101947.63;4996759;28;20012;-89
2023/09/09 09:01:53;;;;;;;;;;;;;;;32.04;nan;101944.03;4996625;28;19979;-89
2023/09/09 09:04:18;;;;;;;;;;;;;;;32.25;nan;101938.09;5000760;28;19967;-89
2023/09/09 09:06:48;;;;;;;;;;;;;;;32.49;nan;101940.53;5003192;28;19917;-90
2023/09/09 09:09:14;;;;;;;;;;;;;;;32.70;nan;101934.59;5004586;28;20007;-88
2023/09/09 09:11:40;;;;;;;;;;;;;;;32.88;nan;101927.38;4998018;28;19987;-89
2023/09/09 09:14:07;;;;;;;;;;;;;;;33.04;nan;101936.34;4992482;28;19921;-87
2023/09/09 09:16:32;;;;;;;;;;;;;;;33.22;nan;101928.28;4994000;28;19929;-88
2023/09/09 09:19:02;;;;;;;;;;;;;;;33.44;nan;101932.19;4994202;28;19943;-88
2023/09/09 09:21:32;;;;;;;;;;;;;;;33.70;nan;101927.75;5004162;28;20279;-88
2023/09/09 09:23:57;;;;;;;;;;;;;;;33.91;nan;101928.84;4998688;28;19919;-88
2023/09/09 09:26:24;;;;;;;;;;;;;;;34.10;nan;101927.84;5003003;28;20406;-88
2023/09/09 09:28:49;;;;;;;;;;;;;;;34.29;nan;101923.28;5000835;28;19948;-87
2023/09/09 09:31:19;;;;;;;;;;;;;;;34.32;nan;101916.97;5001758;28;19917;-87
2023/09/09 09:33:46;;;;;;;;;;;;;;;34.36;nan;101913.06;4997698;28;19918;-87
2023/09/09 09:36:11;;;;;;;;;;;;;;;34.43;nan;101918.69;5000062;28;19921;-87
2023/09/09 09:38:36;;;;;;;;;;;;;;;34.55;nan;101914.81;4998000;28;20294;-88
2023/09/09 09:41:03;;;;;;;;;;;;;;;34.70;nan;101913.75;4993384;28;19925;-88
2023/09/09 09:43:31;;;;;;;;;;;;;;;34.87;nan;101906.75;5001996;28;19965;-91
2023/09/09 09:46:11;;;;;;;;;;;;;;;35.05;nan;101910.47;4996488;28;19918;-88
2023/09/09 09:48:37;;;;;;;;;;;;;;;35.11;nan;101905.31;4997408;28;19922;-87
2023/09/09 09:51:02;;;;;;;;;;;;;;;35.22;nan;101919.31;4996243;28;20451;-87
2023/09/09 09:53:28;;;;;;;;;;;;;;;35.28;nan;101903.81;4988822;28;20333;-88
2023/09/09 09:55:55;;;;;;;;;;;;;;;35.33;nan;101906.22;4995974;28;20366;-88
2023/09/09 09:58:21;;;;;;;;;;;;;;;35.43;nan;101899.94;4999751;28;20144;-86
2023/09/09 10:00:48;;;;;;;;;;;;;;;35.54;nan;101900.78;4997852;28;19918;-90
2023/09/09 10:03:17;;;;;;;;;;;;;;;35.61;nan;101898.03;4998776;28;19922;-88
2023/09/09 10:05:46;;;;;;;;;;;;;;;35.69;nan;101885.69;4994456;28;19918;-89
2023/09/09 10:08:16;;;;;;;;;;;;;;;35.79;nan;101886.94;4997505;28;19926;-88
2023/09/09 10:10:46;;;;;;;;;;;;;;;35.93;nan;101886.22;4993256;28;19950;-88
2023/09/09 10:13:30;;;;;;;;;;;;;;;36.10;nan;101887.44;4988279;28;19952;-86
2023/09/09 10:15:56;;;;;;;;;;;;;;;36.27;nan;101893.06;4991492;28;20035;-87
2023/09/09 10:18:22;;;;;;;;;;;;;;;36.36;nan;101880.72;4994526;28;19947;-87
2023/09/09 10:20:47;;;;;;;;;;;;;;;36.40;nan;101873.94;4990104;28;19921;-87
2023/09/09 10:23:13;;;;;;;;;;;;;;;36.34;nan;101874.72;4991639;28;19929;-88
2023/09/09 10:25:42;;;;;;;;;;;;;;;36.46;nan;101874.34;4996682;28;19921;-89
2023/09/09 10:28:08;;;;;;;;;;;;;;;36.57;nan;101877.91;4998475;28;19928;-87
2023/09/09 10:30:35;;;;;;;;;;;;;;;36.59;nan;101869.94;4994533;28;19917;-87
2023/09/09 10:33:02;;;;;;;;;;;;;;;36.65;nan;101873.94;4991770;28;19992;-87
2023/09/09 10:35:28;;;;;;;;;;;;;;;36.79;nan;101871.13;4992531;28;19975;-87
2023/09/09 10:37:55;;;;;;;;;;;;;;;36.90;nan;101873.91;4987886;28;19929;-87
2023/09/09 10:40:20;;;;;;;;;;;;;;;36.90;nan;101871.91;4994806;28;19925;-86
2023/09/09 10:42:46;;;;;;;;;;;;;;;36.92;nan;101866.72;4987706;28;20096;-86
2023/09/09 10:45:31;;;;;;;;;;;;;;;37.01;nan;101871.09;4994383;28;19922;-86
2023/09/09 10:47:56;;;;;;;;;;;;;;;37.03;nan;101860.31;4989746;28;19928;-86
2023/09/09 10:50:22;;;;;;;;;;;;;;;37.22;nan;101863.44;4994419;28;19965;-86
2023/09/09 10:52:50;;;;;;;;;;;;;;;37.38;nan;101857.44;4993825;28;20484;-86
2023/09/09 10:55:15;;;;;;;;;;;;;;;37.44;nan;101863.38;4993108;28;20408;-86
2023/09/09 10:57:41;;;;;;;;;;;;;;;37.54;nan;101867.34;4988492;28;19922;-85
2023/09/09 11:00:09;;;;;;;;;;;;;;;37.61;nan;101858.91;4991257;28;19975;-84
2023/09/09 11:02:47;;;;;;;;;;;;;;;37.69;nan;101852.06;4995440;28;19917;-84
2023/09/09 11:05:15;;;;;;;;;;;;;;;37.79;nan;101854.03;4995134;28;19925;-83
2023/09/09 11:07:44;;;;;;;;;;;;;;;37.89;nan;101850.41;4997209;28;19928;-83
2023/09/09 11:10:09;;;;;;;;;;;;;;;37.95;nan;101857.13;4996873;28;19922;-84
2023/09/09 11:12:35;;;;;;;;;;;;;;;38.01;nan;101849.88;4996325;28;19971;-86
2023/09/09 11:15:11;;;;;;;;;;;;;;;38.08;nan;101852.66;4992557;28;20040;-84
2023/09/09 11:17:39;;;;;;;;;;;;;;;38.05;nan;101850.66;4991605;28;19925;-84
2023/09/09 11:20:07;;;;;;;;;;;;;;;38.11;nan;101851.03;4995615;28;19917;-85
2023/09/09 11:22:32;;;;;;;;;;;;;;;38.20;nan;101847.78;4994130;28;19932;-85
2023/09/09 11:25:01;;;;;;;;;;;;;;;38.30;nan;101850.50;4989123;28;19926;-85
2023/09/09 11:27:26;;;;;;;;;;;;;;;38.37;nan;101847.63;4992855;28;19983;-86
2023/09/09 11:29:52;;;;;;;;;;;;;;;38.27;nan;101845.72;5006756;28;20409;-85
2023/09/09 11:32:25;;;;;;;;;;;;;;;38.20;nan;101850.56;4993624;28;19926;-85
2023/09/09 11:34:51;;;;;;;;;;;;;;;38.09;nan;101848.66;4991235;28;20417;-85
2023/09/09 11:37:26;;;;;;;;;;;;;;;38.14;nan;101847.41;4992669;28;19963;-86
2023/09/09 11:39:52;;;;;;;;;;;;;;;38.24;nan;101842.94;4992248;28;19925;-85
2023/09/09 11:42:22;;;;;;;;;;;;;;;38.20;nan;101840.19;4996511;28;19988;-85
2023/09/09 11:44:47;;;;;;;;;;;;;;;38.12;nan;101835.03;4998958;28;19936;-84
2023/09/09 11:47:14;;;;;;;;;;;;;;;38.19;nan;101837.78;4994423;28;19918;-85
2023/09/09 11:49:41;;;;;;;;;;;;;;;38.18;nan;101824.97;4997764;28;20330;-85
2023/09/09 11:52:07;;;;;;;;;;;;;;;38.25;nan;101833.38;4995181;28;20000;-85
2023/09/09 11:54:33;;;;;;;;;;;;;;;38.39;nan;101827.63;4994297;28;20335;-86
2023/09/09 11:57:08;;;;;;;;;;;;;;;38.50;nan;101828.31;4994826;28;19925;-85
2023/09/09 11:59:43;;;;;;;;;;;;;;;38.50;nan;101825.53;4998506;28;20432;-85
2023/09/09 12:02:16;;;;;;;;;;;;;;;38.52;nan;101823.09;4995251;28;20373;-84
2023/09/09 12:04:51;;;;;;;;;;;;;;;38.69;nan;101822.16;4995002;28;19932;-87
2023/09/09 12:07:16;;;;;;;;;;;;;;;38.82;nan;101813.22;4994295;28;19937;-86
2023/09/09 12:09:42;;;;;;;;;;;;;;;38.98;nan;101816.25;4998530;28;20345;-86
2023/09/09 12:12:07;;;;;;;;;;;;;;;39.12;nan;101812.47;4993805;28;19955;-85
2023/09/09 12:14:33;;;;;;;;;;;;;;;39.24;nan;101798.72;4996060;28;20324;-85
2023/09/09 12:16:58;;;;;;;;;;;;;;;39.40;nan;101808.50;4991332;28;20382;-86
2023/09/09 12:19:24;;;;;;;;;;;;;;;39.58;nan;101803.47;4995322;28;19928;-85
2023/09/09 12:21:49;;;;;;;;;;;;;;;39.61;nan;101811.03;4993269;28;19928;-86
2023/09/09 12:24:15;;;;;;;;;;;;;;;39.58;nan;101806.28;4994341;28;19968;-87
2023/09/09 12:26:49;;;;;;;;;;;;;;;39.66;nan;101802.13;4990700;28;19960;-87
2023/09/09 12:29:14;;;;;;;;;;;;;;;39.80;nan;101809.56;4990435;28;19926;-86
2023/09/09 12:31:52;;;;;;;;;;;;;;;39.75;nan;101805.22;4997136;28;19921;-86
2023/09/09 12:34:22;;;;;;;;;;;;;;;39.78;nan;101801.56;4992585;28;19918;-85
2023/09/09 12:36:48;;;;;;;;;;;;;;;39.88;nan;101791.41;4992807;28;20464;-85
2023/09/09 12:39:44;;;;;;;;;;;;;;;39.88;nan;101797.81;4995424;28;20001;-84
2023/09/09 12:42:09;;;;;;;;;;;;;;;39.86;nan;101793.84;4997199;28;19929;-85
2023/09/09 12:44:50;;;;;;;;;;;;;;;39.94;nan;101800.91;4994269;28;19921;-85
2023/09/09 12:47:22;;;;;;;;;;;;;;;40.00;nan;101795.63;4991993;28;19933;-85
2023/09/09 12:49:47;;;;;;;;;;;;;;;40.09;nan;101796.69;4993952;28;20029;-84
2023/09/09 12:52:13;;;;;;;;;;;;;;;40.24;nan;101796.44;4991506;28;20380;-85
2023/09/09 12:54:38;;;;;;;;;;;;;;;40.35;nan;101783.78;4997285;28;19964;-83
2023/09/09 12:57:03;;;;;;;;;;;;;;;40.46;nan;101801.25;5002226;28;19924;-84